createdAt,value
2023-03-18T00:01:07.718Z,4.20
2023-03-18T00:03:38.674Z,4.00
2023-03-18T00:06:08.679Z,3.80
2023-03-18T00:08:39.433Z,4.30
2023-03-18T00:11:08.041Z,4.10
2023-03-18T00:13:36.684Z,3.90
2023-03-18T00:16:07.242Z,3.77
2023-03-18T00:18:35.612Z,3.70
2023-03-18T00:21:03.852Z,4.57
2023-03-18T00:23:33.270Z,4.40
2023-03-18T00:26:03.085Z,3.30
2023-03-18T00:28:32.724Z,3.93
2023-03-18T00:31:05.357Z,4.33
2023-03-18T00:33:33.785Z,3.10
2023-03-18T00:36:02.799Z,3.50
2023-03-18T00:38:30.778Z,3.87
2023-03-18T00:41:11.439Z,3.83
2023-03-18T00:43:52.599Z,3.17
2023-03-18T00:46:23.526Z,4.27
2023-03-18T00:48:52.538Z,3.50
2023-03-18T00:51:22.823Z,3.93
2023-03-18T00:53:53.134Z,3.93
2023-03-18T00:56:23.994Z,3.50
2023-03-18T00:58:53.898Z,3.37
2023-03-18T01:01:23.060Z,3.17
2023-03-18T01:03:51.665Z,3.30
2023-03-18T01:06:25.634Z,3.60
2023-03-18T01:08:53.840Z,3.77
2023-03-18T01:11:21.974Z,3.77
2023-03-18T01:13:50.157Z,3.00
2023-03-18T01:16:20.964Z,3.13
2023-03-18T01:21:23.637Z,3.40
2023-03-18T01:23:51.521Z,3.87
2023-03-18T01:26:19.649Z,3.17
2023-03-18T01:28:48.117Z,3.73
2023-03-18T01:31:16.369Z,3.53
2023-03-18T01:33:46.081Z,4.00
2023-03-18T01:36:15.381Z,3.57
2023-03-18T01:38:43.242Z,3.57
2023-03-18T01:41:12.426Z,3.23
2023-03-18T01:43:43.696Z,3.50
2023-03-18T01:46:37.480Z,3.93
2023-03-18T01:49:10.678Z,3.40
2023-03-18T01:51:40.702Z,3.40
2023-03-18T01:54:10.418Z,3.23
2023-03-18T01:56:41.528Z,3.10
2023-03-18T01:59:10.547Z,3.57
2023-03-18T02:01:43.856Z,3.63
2023-03-18T02:04:19.108Z,3.27
2023-03-18T02:06:47.145Z,3.47
2023-03-18T02:09:16.112Z,3.20
2023-03-18T02:11:46.739Z,3.63
2023-03-18T02:14:17.028Z,3.30
2023-03-18T02:16:48.614Z,3.33
2023-03-18T02:19:30.571Z,3.93
2023-03-18T02:22:06.506Z,2.70
2023-03-18T02:24:40.576Z,3.63
2023-03-18T02:27:18.300Z,2.83
2023-03-18T02:29:47.824Z,3.20
2023-03-18T02:32:17.186Z,3.10
2023-03-18T02:34:46.711Z,3.33
2023-03-18T02:37:14.650Z,3.07
2023-03-18T02:39:42.488Z,3.57
2023-03-18T02:42:13.054Z,3.03
2023-03-18T02:44:44.839Z,3.57
2023-03-18T02:47:16.116Z,3.90
2023-03-18T02:49:44.569Z,3.87
2023-03-18T02:52:12.808Z,2.97
2023-03-18T02:54:41.171Z,2.97
2023-03-18T02:57:09.144Z,3.20
2023-03-18T02:59:36.940Z,3.17
2023-03-18T03:02:06.611Z,3.20
2023-03-18T03:04:34.946Z,3.63
2023-03-18T03:07:02.823Z,2.83
2023-03-18T03:09:31.123Z,3.10
2023-03-18T03:11:58.978Z,3.20
2023-03-18T03:14:26.946Z,2.97
2023-03-18T03:16:54.839Z,3.00
2023-03-18T03:19:24.035Z,2.80
2023-03-18T03:21:52.284Z,3.30
2023-03-18T03:24:20.411Z,2.80
2023-03-18T03:26:48.620Z,2.87
2023-03-18T03:29:16.441Z,3.10
2023-03-18T03:31:44.290Z,3.47
2023-03-18T03:34:12.259Z,2.43
2023-03-18T03:36:41.596Z,2.87
2023-03-18T03:39:09.481Z,3.10
2023-03-18T03:41:37.404Z,3.23
2023-03-18T03:44:05.369Z,2.40
2023-03-18T03:46:33.277Z,3.13
2023-03-18T03:49:01.344Z,2.70
2023-03-18T03:51:29.380Z,3.20
2023-03-18T03:53:59.012Z,3.37
2023-03-18T03:56:27.329Z,3.30
2023-03-18T03:58:55.363Z,3.57
2023-03-18T04:01:23.346Z,3.23
2023-03-18T04:03:51.384Z,3.00
2023-03-18T04:06:19.598Z,3.03
2023-03-18T04:08:47.650Z,3.23
2023-03-18T04:11:17.324Z,2.87
2023-03-18T04:13:45.638Z,3.27
2023-03-18T04:16:14.551Z,3.40
2023-03-18T04:18:42.593Z,3.10
2023-03-18T04:21:10.740Z,2.80
2023-03-18T04:23:38.805Z,3.10
2023-03-18T04:26:07.079Z,2.87
2023-03-18T04:28:36.528Z,2.80
2023-03-18T04:31:04.861Z,3.33
2023-03-18T04:33:33.566Z,2.27
2023-03-18T04:36:01.769Z,3.00
2023-03-18T04:38:29.817Z,3.37
2023-03-18T04:40:57.959Z,2.90
2023-03-18T04:43:25.998Z,2.73
2023-03-18T04:45:55.481Z,3.07
2023-03-18T04:48:23.452Z,3.13
2023-03-18T04:50:51.567Z,3.13
2023-03-18T04:53:19.918Z,2.70
2023-03-18T04:55:49.449Z,2.80
2023-03-18T04:58:17.892Z,2.83
2023-03-18T05:00:46.215Z,3.60
2023-03-18T05:03:15.935Z,2.97
2023-03-18T05:05:44.114Z,3.40
2023-03-18T05:08:12.889Z,2.93
2023-03-18T05:10:41.395Z,2.87
2023-03-18T05:13:11.173Z,3.00
2023-03-18T05:15:39.185Z,2.97
2023-03-18T05:18:07.255Z,2.97
2023-03-18T05:20:36.567Z,3.00
2023-03-18T05:23:04.844Z,2.27
2023-03-18T05:25:33.516Z,3.10
2023-03-18T05:28:01.940Z,3.33
2023-03-18T05:30:30.006Z,2.73
2023-03-18T05:32:58.624Z,2.67
2023-03-18T05:35:26.655Z,3.50
2023-03-18T05:37:56.077Z,3.10
2023-03-18T05:40:24.216Z,3.37
2023-03-18T05:42:56.261Z,2.87
2023-03-18T05:45:24.877Z,3.20
2023-03-18T05:47:53.183Z,3.23
2023-03-18T05:50:30.129Z,4.27
2023-03-18T05:52:59.903Z,3.60
2023-03-18T05:55:28.436Z,3.93
2023-03-18T05:57:57.260Z,4.03
2023-03-18T06:00:25.835Z,4.40
2023-03-18T06:02:54.099Z,4.03
2023-03-18T06:05:23.242Z,3.70
2023-03-18T06:07:51.515Z,3.53
2023-03-18T06:10:22.678Z,4.43
2023-03-18T06:12:51.303Z,4.37
2023-03-18T06:15:21.498Z,4.60
2023-03-18T06:17:50.035Z,4.23
2023-03-18T06:20:19.676Z,5.43
2023-03-18T06:22:49.984Z,4.43
2023-03-18T06:25:21.765Z,4.23
2023-03-18T06:27:50.041Z,3.93
2023-03-18T06:30:19.254Z,2.90
2023-03-18T06:32:47.932Z,3.67
2023-03-18T06:35:16.699Z,3.30
2023-03-18T06:37:44.736Z,3.23
2023-03-18T06:40:13.424Z,3.00
2023-03-18T06:42:43.088Z,2.37
2023-03-18T06:45:12.118Z,3.30
2023-03-18T06:47:41.175Z,4.00
2023-03-18T06:50:10.398Z,3.50
2023-03-18T06:52:39.189Z,3.23
2023-03-18T06:55:08.154Z,3.30
2023-03-18T06:57:36.136Z,3.47
2023-03-18T07:00:06.322Z,3.77
2023-03-18T07:02:34.677Z,3.40
2023-03-18T07:05:04.368Z,3.63
2023-03-18T07:07:32.564Z,3.13
2023-03-18T07:10:00.794Z,3.77
2023-03-18T07:12:28.974Z,3.47
2023-03-18T07:14:56.922Z,3.50
2023-03-18T08:11:26.126Z,3.10
2023-03-18T08:13:54.309Z,3.10
2023-03-18T08:16:23.231Z,3.13
2023-03-18T08:19:02.446Z,3.53
2023-03-18T08:21:30.924Z,3.33
2023-03-18T08:23:59.040Z,3.00
2023-03-18T08:26:30.722Z,3.57
2023-03-18T08:28:58.742Z,3.60
2023-03-18T08:31:29.094Z,3.00
2023-03-18T08:34:00.615Z,3.13
2023-03-18T08:36:28.793Z,3.37
2023-03-18T08:38:58.115Z,3.87
2023-03-18T08:41:26.654Z,3.30
2023-03-18T08:44:01.846Z,3.30
2023-03-18T08:46:30.440Z,3.07
2023-03-18T08:48:59.870Z,3.60
2023-03-18T08:51:29.381Z,3.20
2023-03-18T08:54:00.675Z,3.23
2023-03-18T08:56:29.170Z,2.87
2023-03-18T08:59:05.219Z,2.70
2023-03-18T09:01:33.453Z,3.10
2023-03-18T09:04:02.631Z,3.10
2023-03-18T09:06:31.549Z,3.10
2023-03-18T09:09:01.980Z,2.83
2023-03-18T09:11:31.370Z,3.13
2023-03-18T09:14:00.902Z,2.83
2023-03-18T09:16:35.942Z,3.13
2023-03-18T09:19:04.373Z,2.92
2023-03-18T09:21:36.240Z,3.00
2023-03-18T09:24:07.088Z,3.25
2023-03-18T09:26:39.911Z,2.87
2023-03-18T09:36:14.860Z,3.50
2023-03-18T09:38:43.860Z,3.08
2023-03-18T09:41:25.715Z,3.67
2023-03-18T09:44:04.222Z,2.78
2023-03-18T09:46:48.005Z,2.83
2023-03-18T09:49:33.211Z,3.20
2023-03-18T09:52:14.189Z,3.60
2023-03-18T09:54:47.279Z,3.28
2023-03-18T09:57:20.641Z,3.15
2023-03-18T09:59:51.856Z,3.22
2023-03-18T10:02:24.758Z,2.63
2023-03-18T10:04:57.444Z,2.97
2023-03-18T10:07:31.091Z,2.63
2023-03-18T10:10:04.676Z,3.30
2023-03-18T10:12:35.539Z,2.47
2023-03-18T10:15:14.978Z,2.55
2023-03-18T10:17:47.310Z,2.90
2023-03-18T10:20:19.936Z,2.92
2023-03-18T10:23:07.215Z,2.75
2023-03-18T10:25:39.010Z,2.60
2023-03-18T10:28:42.602Z,3.08
2023-03-18T10:31:25.612Z,2.72
2023-03-18T10:34:00.155Z,3.03
2023-03-18T10:36:39.296Z,2.67
2023-03-18T10:39:15.364Z,2.35
2023-03-18T10:41:49.978Z,2.60
2023-03-18T10:44:22.800Z,2.70
2023-03-18T10:46:59.936Z,2.40
2023-03-18T10:49:32.988Z,2.80
2023-03-18T10:52:07.836Z,2.70
2023-03-18T10:54:41.282Z,2.35
2023-03-18T10:57:14.267Z,2.80
2023-03-18T10:59:44.729Z,2.88
2023-03-18T11:02:19.677Z,2.78
2023-03-18T11:04:55.451Z,2.90
2023-03-18T11:07:26.770Z,2.50
2023-03-18T11:09:55.766Z,2.95
2023-03-18T11:12:27.101Z,2.70
2023-03-18T11:14:56.384Z,2.95
2023-03-18T11:17:28.223Z,2.95
2023-03-18T11:20:08.195Z,2.95
2023-03-18T11:22:38.771Z,2.75
2023-03-18T11:25:16.655Z,3.42
2023-03-18T11:27:47.233Z,3.17
2023-03-18T11:30:33.259Z,3.10
2023-03-18T11:33:06.332Z,2.95
2023-03-18T11:35:40.886Z,2.78
2023-03-18T11:38:16.328Z,3.00
2023-03-18T11:40:44.871Z,2.88
2023-03-18T11:43:20.597Z,3.33
2023-03-18T11:45:53.413Z,2.60
2023-03-18T11:48:30.629Z,2.85
2023-03-18T11:51:35.717Z,3.33
2023-03-18T11:54:15.362Z,2.90
2023-03-18T11:56:47.854Z,2.95
2023-03-18T11:59:33.586Z,3.30
2023-03-18T12:02:25.427Z,3.47
2023-03-18T12:05:28.758Z,3.22
2023-03-18T12:08:07.753Z,2.63
2023-03-18T12:10:39.022Z,3.40
2023-03-18T12:13:25.741Z,3.00
2023-03-18T12:16:05.027Z,2.90
2023-03-18T12:18:48.929Z,3.78
2023-03-18T12:21:31.843Z,3.15
2023-03-18T12:24:14.595Z,3.08
2023-03-18T12:26:52.569Z,3.25
2023-03-18T12:29:38.558Z,3.35
2023-03-18T12:32:14.548Z,3.30
2023-03-18T12:35:10.874Z,4.10
2023-03-18T12:37:53.916Z,2.85
2023-03-18T12:40:34.393Z,2.50
2023-03-18T12:43:34.990Z,2.40
2023-03-18T12:46:10.489Z,2.88
2023-03-18T12:48:46.411Z,2.15
2023-03-18T12:51:19.194Z,2.25
2023-03-18T12:53:50.191Z,1.73
2023-03-18T12:56:22.451Z,2.05
2023-03-18T12:58:55.177Z,2.50
2023-03-18T13:01:28.561Z,2.15
2023-03-18T13:04:02.088Z,1.58
2023-03-18T13:06:35.502Z,1.48
2023-03-18T13:09:13.378Z,1.33
2023-03-18T13:12:05.099Z,1.65
2023-03-18T13:14:49.270Z,1.25
2023-03-18T13:17:23.451Z,1.30
2023-03-18T13:19:51.927Z,1.25
2023-03-18T13:22:49.569Z,1.58
2023-03-18T13:25:29.040Z,1.73
2023-03-18T13:28:21.730Z,1.17
2023-03-18T13:31:07.879Z,1.30
2023-03-18T13:33:54.081Z,1.50
2023-03-18T13:36:51.673Z,1.17
2023-03-18T13:39:31.661Z,1.60
2023-03-18T13:42:22.378Z,2.10
2023-03-18T13:44:59.851Z,1.80
2023-03-18T13:47:32.777Z,1.65
2023-03-18T13:50:04.884Z,1.65
2023-03-18T13:52:41.920Z,1.40
2023-03-18T13:55:23.470Z,1.77
2023-03-18T13:57:57.466Z,1.42
2023-03-18T14:00:33.327Z,1.23
2023-03-18T14:03:17.211Z,1.67
2023-03-18T14:05:46.991Z,1.50
2023-03-18T14:08:35.363Z,1.27
2023-03-18T14:11:37.326Z,1.35
2023-03-18T14:14:07.205Z,1.67
2023-03-18T14:16:53.482Z,1.92
2023-03-18T14:19:28.501Z,1.35
2023-03-18T14:22:07.731Z,0.90
2023-03-18T14:24:36.783Z,1.27
2023-03-18T14:27:18.387Z,1.30
2023-03-18T14:29:48.173Z,1.27
2023-03-18T14:32:38.491Z,1.45
2023-03-18T14:35:28.291Z,1.30
2023-03-18T14:38:02.815Z,1.02
2023-03-18T14:40:36.287Z,0.75
2023-03-18T14:43:10.886Z,1.30
2023-03-18T14:45:44.176Z,1.25
2023-03-18T14:48:20.837Z,1.27
2023-03-18T14:50:50.917Z,1.10
2023-03-18T14:53:23.626Z,1.00
2023-03-18T14:55:55.118Z,1.33
2023-03-18T14:58:25.858Z,1.30
2023-03-18T15:00:56.207Z,1.92
2023-03-18T15:03:28.347Z,1.98
2023-03-18T15:06:00.453Z,1.58
2023-03-18T15:08:46.376Z,1.63
2023-03-18T15:11:17.495Z,2.10
2023-03-18T15:13:48.374Z,2.15
2023-03-18T15:16:20.206Z,1.75
2023-03-18T15:18:54.846Z,1.88
2023-03-18T15:21:25.970Z,1.88
2023-03-18T15:23:56.509Z,1.67
2023-03-18T15:26:27.123Z,1.92
2023-03-18T15:28:57.543Z,1.17
2023-03-18T15:31:27.562Z,1.15
2023-03-18T15:34:16.425Z,0.82
2023-03-18T15:36:46.328Z,1.33
2023-03-18T15:39:22.140Z,1.88
2023-03-18T15:41:53.978Z,2.00
2023-03-18T15:44:26.844Z,1.60
2023-03-18T15:46:56.046Z,1.35
2023-03-18T15:49:28.731Z,1.50
2023-03-18T15:52:02.424Z,1.45
2023-03-18T15:54:38.562Z,1.35
2023-03-18T15:57:13.213Z,1.60
2023-03-18T15:59:41.229Z,1.65
2023-03-18T16:02:16.470Z,1.98
2023-03-18T16:04:48.319Z,2.28
2023-03-18T16:07:22.136Z,1.75
2023-03-18T16:09:51.353Z,2.30
2023-03-18T16:12:21.969Z,2.00
2023-03-18T16:14:51.967Z,2.03
2023-03-18T16:17:22.240Z,1.80
2023-03-18T16:19:54.434Z,1.30
2023-03-18T16:22:23.235Z,1.92
2023-03-18T16:24:51.784Z,2.10
2023-03-18T16:27:30.065Z,2.10
2023-03-18T16:29:58.219Z,1.95
2023-03-18T16:32:26.358Z,1.80
2023-03-18T16:34:55.612Z,1.80
2023-03-18T16:37:25.926Z,1.88
2023-03-18T16:39:55.888Z,1.70
2023-03-18T16:42:25.181Z,1.45
2023-03-18T16:44:53.306Z,1.40
2023-03-18T16:47:23.642Z,1.58
2023-03-18T16:49:52.376Z,2.33
2023-03-18T16:52:22.006Z,1.77
2023-03-18T16:54:50.115Z,1.80
2023-03-18T16:57:21.611Z,1.70
2023-03-18T16:59:53.073Z,1.63
2023-03-18T17:02:32.481Z,1.55
2023-03-18T17:05:01.090Z,1.77
2023-03-18T17:07:30.527Z,3.00
2023-03-18T17:09:58.587Z,2.13
2023-03-18T17:12:29.175Z,3.20
2023-03-18T17:14:58.545Z,2.60
2023-03-18T17:17:30.568Z,3.23
2023-03-18T17:19:59.710Z,2.53
2023-03-18T17:22:29.516Z,3.80
2023-03-18T17:25:00.246Z,2.10
2023-03-18T17:27:32.874Z,3.60
2023-03-18T17:30:01.621Z,3.27
2023-03-18T17:32:29.700Z,5.00
2023-03-18T17:34:57.775Z,5.77
2023-03-18T17:37:25.786Z,4.57
2023-03-18T17:39:54.036Z,4.50
2023-03-18T17:42:29.632Z,7.67
2023-03-18T17:45:00.510Z,5.83
2023-03-18T17:47:28.636Z,14.13
2023-03-18T17:49:56.734Z,10.57
2023-03-18T17:52:25.316Z,7.93
2023-03-18T17:54:53.311Z,8.07
2023-03-18T17:57:21.278Z,17.90
2023-03-18T17:59:51.591Z,12.77
2023-03-18T18:02:20.395Z,15.77
2023-03-18T18:04:48.661Z,17.40
2023-03-18T18:07:19.091Z,21.27
2023-03-18T18:09:47.558Z,18.33
2023-03-18T18:12:19.155Z,16.13
2023-03-18T18:14:47.471Z,16.20
2023-03-18T18:17:17.412Z,11.33
2023-03-18T18:19:45.693Z,8.17
2023-03-18T18:22:19.208Z,10.03
2023-03-18T18:24:47.524Z,9.17
2023-03-18T18:27:16.328Z,10.83
2023-03-18T18:29:45.918Z,8.80
2023-03-18T18:32:16.498Z,8.47
2023-03-18T18:34:45.152Z,8.27
2023-03-18T18:37:13.429Z,7.77
2023-03-18T18:39:42.861Z,6.77
2023-03-18T18:42:12.408Z,7.07
2023-03-18T18:44:40.489Z,7.37
2023-03-18T18:47:20.272Z,4.93
2023-03-18T18:49:48.682Z,5.00
2023-03-18T18:52:16.986Z,6.90
2023-03-18T18:54:45.232Z,6.67
2023-03-18T18:57:26.744Z,7.37
2023-03-18T18:59:55.010Z,6.83
2023-03-18T19:02:31.257Z,5.93
2023-03-18T19:05:00.030Z,6.80
2023-03-18T19:07:29.383Z,8.00
2023-03-18T19:09:57.440Z,9.77
2023-03-18T19:12:25.794Z,13.20
2023-03-18T19:14:54.285Z,11.53
2023-03-18T19:17:24.324Z,13.17
2023-03-18T19:19:54.723Z,10.47
2023-03-18T19:22:23.394Z,8.87
2023-03-18T19:24:51.658Z,7.10
2023-03-18T19:27:23.963Z,6.83
2023-03-18T19:29:53.603Z,8.03
2023-03-18T19:32:23.206Z,7.07
2023-03-18T19:34:54.111Z,6.67
2023-03-18T19:37:26.073Z,13.30
2023-03-18T19:39:55.650Z,12.93
2023-03-18T19:42:24.158Z,13.00
2023-03-18T19:44:52.128Z,13.87
2023-03-18T19:47:24.157Z,15.30
2023-03-18T19:49:53.661Z,13.23
2023-03-18T19:52:23.852Z,15.30
2023-03-18T19:54:52.694Z,13.80
2023-03-18T19:57:24.381Z,15.17
2023-03-18T19:59:54.153Z,16.80
2023-03-18T20:02:24.375Z,15.70
2023-03-18T20:04:55.477Z,20.27
2023-03-18T20:07:25.666Z,21.70
2023-03-18T20:09:55.184Z,29.57
2023-03-18T20:12:26.263Z,22.07
2023-03-18T20:14:54.326Z,23.67
2023-03-18T20:17:30.815Z,20.93
2023-03-18T20:20:00.459Z,20.97
2023-03-18T20:22:32.955Z,22.43
2023-03-18T20:25:01.172Z,24.00
2023-03-18T20:27:30.168Z,26.67
2023-03-18T20:29:58.816Z,24.50
2023-03-18T20:32:27.089Z,19.17
2023-03-18T20:34:55.110Z,16.10
2023-03-18T20:37:31.050Z,13.97
2023-03-18T20:39:59.142Z,13.63
2023-03-18T20:42:27.279Z,13.87
2023-03-18T20:44:55.834Z,14.37
2023-03-18T20:47:23.881Z,15.17
2023-03-18T20:49:51.949Z,15.40
2023-03-18T20:52:27.125Z,16.00
2023-03-18T20:54:56.567Z,17.23
2023-03-18T20:57:25.083Z,16.27
2023-03-18T20:59:53.390Z,15.00
2023-03-18T21:02:29.437Z,15.87
2023-03-18T21:04:58.683Z,15.73
2023-03-18T21:07:28.511Z,15.33
2023-03-18T21:09:56.706Z,16.03
2023-03-18T21:12:25.863Z,14.37
2023-03-18T21:14:53.935Z,15.03
2023-03-18T21:17:23.958Z,13.93
2023-03-18T21:19:53.412Z,12.90
2023-03-18T21:22:23.740Z,14.83
2023-03-18T21:24:53.353Z,14.03
2023-03-18T21:27:22.815Z,14.17
2023-03-18T21:29:52.426Z,14.40
2023-03-18T21:32:25.510Z,12.77
2023-03-18T21:34:53.605Z,14.23
2023-03-18T21:37:24.562Z,14.63
2023-03-18T21:39:54.625Z,14.13
2023-03-18T21:42:25.141Z,13.73
2023-03-18T21:44:53.474Z,14.03
2023-03-18T21:47:23.751Z,16.43
2023-03-18T21:49:51.895Z,15.87
2023-03-18T21:52:27.423Z,20.47
2023-03-18T21:54:56.970Z,21.87
2023-03-18T21:57:25.892Z,21.27
2023-03-18T21:59:54.704Z,27.03
2023-03-18T22:02:28.450Z,26.10
2023-03-18T22:04:57.943Z,25.57
2023-03-18T22:07:26.271Z,28.57
2023-03-18T22:09:54.624Z,22.80
2023-03-18T22:12:26.534Z,31.27
2023-03-18T22:14:54.536Z,23.33
2023-03-18T22:17:26.235Z,27.67
2023-03-18T22:19:55.498Z,19.73
2023-03-18T22:22:28.825Z,44.00
2023-03-18T22:24:57.578Z,33.27
2023-03-18T22:27:28.789Z,30.90
2023-03-18T22:29:58.642Z,27.27
2023-03-18T22:32:40.197Z,24.03
2023-03-18T22:35:14.887Z,25.93
2023-03-18T22:37:43.235Z,17.13
2023-03-18T22:40:17.443Z,13.83
2023-03-18T22:42:47.138Z,23.97
2023-03-18T22:45:23.845Z,24.17
2023-03-18T22:47:53.346Z,41.87
2023-03-18T22:50:21.766Z,31.27
2023-03-18T22:52:51.887Z,31.47
2023-03-18T22:55:25.402Z,24.10
2023-03-18T22:57:54.917Z,15.20
2023-03-18T23:00:25.812Z,16.27
2023-03-18T23:02:55.010Z,12.13
2023-03-18T23:05:24.944Z,11.57
2023-03-18T23:07:53.600Z,10.50
2023-03-18T23:10:22.460Z,9.73
2023-03-18T23:12:50.844Z,12.93
2023-03-18T23:15:23.756Z,12.30
2023-03-18T23:17:51.978Z,14.83
2023-03-18T23:20:21.031Z,33.87
2023-03-18T23:22:49.542Z,29.97
2023-03-18T23:25:19.373Z,25.73
2023-03-18T23:27:48.150Z,22.73
2023-03-18T23:30:16.809Z,17.70
2023-03-18T23:32:46.948Z,17.00
2023-03-18T23:35:15.188Z,14.00
2023-03-18T23:37:43.372Z,10.83
2023-03-18T23:40:12.454Z,11.00
2023-03-18T23:42:40.896Z,18.97
2023-03-18T23:45:10.149Z,14.10
2023-03-18T23:47:38.832Z,13.33
2023-03-18T23:50:10.579Z,8.20
2023-03-18T23:52:38.918Z,11.90
2023-03-18T23:55:21.395Z,10.27
2023-03-18T23:57:56.479Z,18.03
